sensor_id;sensor_type;location;lat;lon;timestamp;P1;durP1;ratioP1;P2;durP2;ratioP2
31091;SDS011;67728;53.122;12.776;2023-06-14T00:05:00;321.23;;;74.67;;
31091;SDS011;67728;53.122;12.776;2023-06-14T00:06:32;323.07;;;75.63;;
31091;SDS011;67728;53.122;12.776;2023-06-14T00:08:04;324.33;;;76.20;;
31091;SDS011;67728;53.122;12.776;2023-06-14T00:09:38;327.30;;;79.90;;
31091;SDS011;67728;53.122;12.776;2023-06-14T00:11:09;325.87;;;78.80;;
31091;SDS011;67728;53.122;12.776;2023-06-14T00:12:41;324.70;;;76.70;;
31091;SDS011;67728;53.122;12.776;2023-06-14T00:14:12;326.40;;;77.53;;
31091;SDS011;67728;53.122;12.776;2023-06-14T00:15:43;326.07;;;79.53;;
31091;SDS011;67728;53.122;12.776;2023-06-14T00:17:15;325.03;;;79.03;;
31091;SDS011;67728;53.122;12.776;2023-06-14T00:18:47;329.33;;;78.30;;
31091;SDS011;67728;53.122;12.776;2023-06-14T00:20:20;323.47;;;76.60;;
31091;SDS011;67728;53.122;12.776;2023-06-14T00:21:52;324.03;;;77.07;;
31091;SDS011;67728;53.122;12.776;2023-06-14T00:23:24;320.13;;;74.50;;
31091;SDS011;67728;53.122;12.776;2023-06-14T00:24:55;321.20;;;75.37;;
31091;SDS011;67728;53.122;12.776;2023-06-14T00:26:27;322.17;;;75.97;;
31091;SDS011;67728;53.122;12.776;2023-06-14T00:27:59;320.10;;;75.00;;
31091;SDS011;67728;53.122;12.776;2023-06-14T00:29:30;316.77;;;73.37;;
31091;SDS011;67728;53.122;12.776;2023-06-14T00:31:02;320.33;;;76.10;;
31091;SDS011;67728;53.122;12.776;2023-06-14T00:32:33;320.93;;;75.63;;
31091;SDS011;67728;53.122;12.776;2023-06-14T00:34:04;318.83;;;73.17;;
31091;SDS011;67728;53.122;12.776;2023-06-14T00:35:37;321.20;;;77.20;;
31091;SDS011;67728;53.122;12.776;2023-06-14T00:37:09;321.43;;;76.87;;
31091;SDS011;67728;53.122;12.776;2023-06-14T00:38:40;321.87;;;75.57;;
31091;SDS011;67728;53.122;12.776;2023-06-14T00:40:12;320.77;;;76.23;;
31091;SDS011;67728;53.122;12.776;2023-06-14T00:41:43;321.63;;;77.07;;
31091;SDS011;67728;53.122;12.776;2023-06-14T00:43:15;321.70;;;75.23;;
31091;SDS011;67728;53.122;12.776;2023-06-14T00:44:46;321.03;;;76.07;;
31091;SDS011;67728;53.122;12.776;2023-06-14T00:46:17;322.40;;;77.77;;
31091;SDS011;67728;53.122;12.776;2023-06-14T00:47:49;321.17;;;74.40;;
31091;SDS011;67728;53.122;12.776;2023-06-14T00:49:25;322.03;;;74.20;;
31091;SDS011;67728;53.122;12.776;2023-06-14T00:50:58;320.93;;;74.07;;
31091;SDS011;67728;53.122;12.776;2023-06-14T00:52:33;320.80;;;73.10;;
31091;SDS011;67728;53.122;12.776;2023-06-14T00:54:06;318.53;;;73.03;;
31091;SDS011;67728;53.122;12.776;2023-06-14T00:55:37;319.57;;;73.00;;
31091;SDS011;67728;53.122;12.776;2023-06-14T00:57:09;318.73;;;73.30;;
31091;SDS011;67728;53.122;12.776;2023-06-14T00:58:41;315.83;;;73.70;;
31091;SDS011;67728;53.122;12.776;2023-06-14T01:00:13;319.67;;;74.27;;
31091;SDS011;67728;53.122;12.776;2023-06-14T01:01:45;315.17;;;74.53;;
31091;SDS011;67728;53.122;12.776;2023-06-14T01:03:16;318.17;;;73.90;;
31091;SDS011;67728;53.122;12.776;2023-06-14T01:04:52;317.83;;;73.87;;
31091;SDS011;67728;53.122;12.776;2023-06-14T01:06:27;316.10;;;73.70;;
31091;SDS011;67728;53.122;12.776;2023-06-14T01:08:11;314.23;;;71.77;;
31091;SDS011;67728;53.122;12.776;2023-06-14T01:09:55;316.43;;;74.60;;
31091;SDS011;67728;53.122;12.776;2023-06-14T01:11:38;315.03;;;72.53;;
31091;SDS011;67728;53.122;12.776;2023-06-14T01:13:18;315.53;;;73.13;;
31091;SDS011;67728;53.122;12.776;2023-06-14T01:14:52;316.60;;;73.47;;
31091;SDS011;67728;53.122;12.776;2023-06-14T01:16:28;314.70;;;73.30;;
31091;SDS011;67728;53.122;12.776;2023-06-14T01:18:03;315.07;;;72.93;;
31091;SDS011;67728;53.122;12.776;2023-06-14T01:19:35;311.93;;;71.00;;
31091;SDS011;67728;53.122;12.776;2023-06-14T01:21:06;313.93;;;72.33;;
31091;SDS011;67728;53.122;12.776;2023-06-14T01:22:53;311.63;;;72.53;;
31091;SDS011;67728;53.122;12.776;2023-06-14T01:24:25;313.90;;;73.40;;
31091;SDS011;67728;53.122;12.776;2023-06-14T01:26:02;314.33;;;72.53;;
31091;SDS011;67728;53.122;12.776;2023-06-14T01:27:33;313.73;;;71.73;;
31091;SDS011;67728;53.122;12.776;2023-06-14T01:29:07;313.80;;;73.47;;
31091;SDS011;67728;53.122;12.776;2023-06-14T01:30:39;314.00;;;73.57;;
31091;SDS011;67728;53.122;12.776;2023-06-14T01:32:15;313.97;;;71.03;;
31091;SDS011;67728;53.122;12.776;2023-06-14T01:33:48;313.73;;;73.50;;
31091;SDS011;67728;53.122;12.776;2023-06-14T01:35:21;315.77;;;72.37;;
31091;SDS011;67728;53.122;12.776;2023-06-14T01:36:53;312.00;;;71.87;;
31091;SDS011;67728;53.122;12.776;2023-06-14T01:38:26;314.63;;;72.63;;
31091;SDS011;67728;53.122;12.776;2023-06-14T01:39:58;316.80;;;73.17;;
31091;SDS011;67728;53.122;12.776;2023-06-14T01:41:30;318.03;;;72.63;;
31091;SDS011;67728;53.122;12.776;2023-06-14T01:43:03;316.73;;;74.00;;
31091;SDS011;67728;53.122;12.776;2023-06-14T01:44:35;316.73;;;71.47;;
31091;SDS011;67728;53.122;12.776;2023-06-14T01:46:07;320.87;;;74.83;;
31091;SDS011;67728;53.122;12.776;2023-06-14T01:47:39;316.40;;;71.90;;
31091;SDS011;67728;53.122;12.776;2023-06-14T01:49:11;315.67;;;72.23;;
31091;SDS011;67728;53.122;12.776;2023-06-14T01:50:43;318.27;;;72.70;;
31091;SDS011;67728;53.122;12.776;2023-06-14T01:52:14;316.93;;;72.40;;
31091;SDS011;67728;53.122;12.776;2023-06-14T01:53:47;315.57;;;71.50;;
31091;SDS011;67728;53.122;12.776;2023-06-14T01:55:19;316.70;;;71.93;;
31091;SDS011;67728;53.122;12.776;2023-06-14T01:56:52;315.57;;;70.53;;
31091;SDS011;67728;53.122;12.776;2023-06-14T01:58:22;311.83;;;69.90;;
31091;SDS011;67728;53.122;12.776;2023-06-14T01:59:54;313.33;;;71.50;;
31091;SDS011;67728;53.122;12.776;2023-06-14T02:01:25;312.77;;;70.77;;
31091;SDS011;67728;53.122;12.776;2023-06-14T02:02:57;317.80;;;71.20;;
31091;SDS011;67728;53.122;12.776;2023-06-14T02:04:27;317.57;;;70.03;;
31091;SDS011;67728;53.122;12.776;2023-06-14T02:05:59;315.20;;;70.03;;
31091;SDS011;67728;53.122;12.776;2023-06-14T02:07:31;316.03;;;70.47;;
31091;SDS011;67728;53.122;12.776;2023-06-14T02:09:03;320.97;;;71.63;;
31091;SDS011;67728;53.122;12.776;2023-06-14T02:10:34;316.73;;;68.87;;
31091;SDS011;67728;53.122;12.776;2023-06-14T02:12:06;317.53;;;70.17;;
31091;SDS011;67728;53.122;12.776;2023-06-14T02:13:38;318.60;;;69.57;;
31091;SDS011;67728;53.122;12.776;2023-06-14T02:15:12;317.27;;;70.03;;
31091;SDS011;67728;53.122;12.776;2023-06-14T02:16:46;317.50;;;70.37;;
31091;SDS011;67728;53.122;12.776;2023-06-14T02:18:20;324.00;;;71.90;;
31091;SDS011;67728;53.122;12.776;2023-06-14T02:19:52;325.50;;;70.50;;
31091;SDS011;67728;53.122;12.776;2023-06-14T02:21:23;324.57;;;71.27;;
31091;SDS011;67728;53.122;12.776;2023-06-14T02:22:55;323.30;;;70.43;;
31091;SDS011;67728;53.122;12.776;2023-06-14T02:24:28;319.63;;;68.57;;
31091;SDS011;67728;53.122;12.776;2023-06-14T02:26:00;317.10;;;68.63;;
31091;SDS011;67728;53.122;12.776;2023-06-14T02:27:32;316.70;;;67.60;;
31091;SDS011;67728;53.122;12.776;2023-06-14T02:29:03;316.50;;;68.07;;
31091;SDS011;67728;53.122;12.776;2023-06-14T02:30:38;317.80;;;69.00;;
31091;SDS011;67728;53.122;12.776;2023-06-14T02:32:10;315.77;;;68.17;;
31091;SDS011;67728;53.122;12.776;2023-06-14T02:33:41;315.97;;;68.13;;
31091;SDS011;67728;53.122;12.776;2023-06-14T02:35:13;315.33;;;68.30;;
31091;SDS011;67728;53.122;12.776;2023-06-14T02:36:45;316.57;;;67.93;;
31091;SDS011;67728;53.122;12.776;2023-06-14T02:38:18;315.63;;;67.50;;
31091;SDS011;67728;53.122;12.776;2023-06-14T02:39:51;323.40;;;69.83;;
31091;SDS011;67728;53.122;12.776;2023-06-14T02:41:21;329.83;;;71.83;;
31091;SDS011;67728;53.122;12.776;2023-06-14T02:42:53;361.17;;;78.13;;
31091;SDS011;67728;53.122;12.776;2023-06-14T02:44:24;371.33;;;80.00;;
31091;SDS011;67728;53.122;12.776;2023-06-14T02:45:56;329.93;;;70.57;;
31091;SDS011;67728;53.122;12.776;2023-06-14T02:47:27;319.87;;;68.80;;
31091;SDS011;67728;53.122;12.776;2023-06-14T02:48:59;325.30;;;70.00;;
31091;SDS011;67728;53.122;12.776;2023-06-14T02:50:30;321.20;;;68.63;;
31091;SDS011;67728;53.122;12.776;2023-06-14T02:52:02;322.43;;;68.13;;
31091;SDS011;67728;53.122;12.776;2023-06-14T02:53:33;317.50;;;67.77;;
31091;SDS011;67728;53.122;12.776;2023-06-14T02:55:06;320.07;;;68.73;;
31091;SDS011;67728;53.122;12.776;2023-06-14T02:56:39;321.70;;;69.27;;
31091;SDS011;67728;53.122;12.776;2023-06-14T02:58:10;320.97;;;67.43;;
31091;SDS011;67728;53.122;12.776;2023-06-14T02:59:43;324.27;;;71.23;;
31091;SDS011;67728;53.122;12.776;2023-06-14T03:01:14;321.87;;;69.50;;
31091;SDS011;67728;53.122;12.776;2023-06-14T03:02:45;326.30;;;70.53;;
31091;SDS011;67728;53.122;12.776;2023-06-14T03:04:17;323.47;;;68.87;;
31091;SDS011;67728;53.122;12.776;2023-06-14T03:05:48;321.73;;;67.67;;
31091;SDS011;67728;53.122;12.776;2023-06-14T03:07:21;320.60;;;67.20;;
31091;SDS011;67728;53.122;12.776;2023-06-14T03:08:53;320.00;;;68.03;;
31091;SDS011;67728;53.122;12.776;2023-06-14T03:10:26;319.40;;;66.37;;
31091;SDS011;67728;53.122;12.776;2023-06-14T03:11:59;321.40;;;67.60;;
31091;SDS011;67728;53.122;12.776;2023-06-14T03:13:29;319.03;;;67.30;;
31091;SDS011;67728;53.122;12.776;2023-06-14T03:15:02;319.77;;;67.93;;
31091;SDS011;67728;53.122;12.776;2023-06-14T03:16:34;319.20;;;68.23;;
31091;SDS011;67728;53.122;12.776;2023-06-14T03:18:05;322.80;;;68.57;;
31091;SDS011;67728;53.122;12.776;2023-06-14T03:19:38;323.00;;;70.33;;
31091;SDS011;67728;53.122;12.776;2023-06-14T03:21:11;323.03;;;69.40;;
31091;SDS011;67728;53.122;12.776;2023-06-14T03:22:43;323.23;;;68.83;;
31091;SDS011;67728;53.122;12.776;2023-06-14T03:24:16;318.00;;;66.70;;
31091;SDS011;67728;53.122;12.776;2023-06-14T03:25:49;321.43;;;67.60;;
31091;SDS011;67728;53.122;12.776;2023-06-14T03:27:20;318.60;;;67.23;;
31091;SDS011;67728;53.122;12.776;2023-06-14T03:28:53;319.20;;;65.77;;
31091;SDS011;67728;53.122;12.776;2023-06-14T03:30:24;320.20;;;67.70;;
31091;SDS011;67728;53.122;12.776;2023-06-14T03:31:57;322.87;;;68.97;;
31091;SDS011;67728;53.122;12.776;2023-06-14T03:33:30;323.13;;;68.93;;
31091;SDS011;67728;53.122;12.776;2023-06-14T03:35:01;322.67;;;67.90;;
31091;SDS011;67728;53.122;12.776;2023-06-14T03:36:32;320.67;;;67.30;;
31091;SDS011;67728;53.122;12.776;2023-06-14T03:38:03;319.73;;;66.17;;
31091;SDS011;67728;53.122;12.776;2023-06-14T03:39:34;323.53;;;68.13;;
31091;SDS011;67728;53.122;12.776;2023-06-14T03:41:08;320.47;;;66.67;;
31091;SDS011;67728;53.122;12.776;2023-06-14T03:42:39;322.70;;;67.40;;
31091;SDS011;67728;53.122;12.776;2023-06-14T03:44:11;324.87;;;68.40;;
31091;SDS011;67728;53.122;12.776;2023-06-14T03:45:41;325.70;;;68.27;;
31091;SDS011;67728;53.122;12.776;2023-06-14T03:47:13;322.87;;;66.40;;
31091;SDS011;67728;53.122;12.776;2023-06-14T03:48:45;326.60;;;68.60;;
31091;SDS011;67728;53.122;12.776;2023-06-14T03:50:17;323.20;;;66.97;;
31091;SDS011;67728;53.122;12.776;2023-06-14T03:51:49;326.80;;;68.80;;
31091;SDS011;67728;53.122;12.776;2023-06-14T03:53:22;323.63;;;66.83;;
31091;SDS011;67728;53.122;12.776;2023-06-14T03:54:53;322.97;;;67.27;;
31091;SDS011;67728;53.122;12.776;2023-06-14T03:56:26;327.63;;;68.53;;
31091;SDS011;67728;53.122;12.776;2023-06-14T03:57:57;325.83;;;67.93;;
31091;SDS011;67728;53.122;12.776;2023-06-14T03:59:29;325.10;;;67.50;;
31091;SDS011;67728;53.122;12.776;2023-06-14T04:01:00;325.53;;;68.07;;
31091;SDS011;67728;53.122;12.776;2023-06-14T04:02:32;324.70;;;67.73;;
31091;SDS011;67728;53.122;12.776;2023-06-14T04:04:04;324.33;;;65.87;;
31091;SDS011;67728;53.122;12.776;2023-06-14T04:05:35;321.33;;;64.80;;
31091;SDS011;67728;53.122;12.776;2023-06-14T04:07:07;322.50;;;66.70;;
31091;SDS011;67728;53.122;12.776;2023-06-14T04:08:38;324.37;;;67.27;;
31091;SDS011;67728;53.122;12.776;2023-06-14T04:10:11;324.47;;;68.17;;
31091;SDS011;67728;53.122;12.776;2023-06-14T04:11:45;323.57;;;67.73;;
31091;SDS011;67728;53.122;12.776;2023-06-14T04:13:16;323.63;;;66.97;;
31091;SDS011;67728;53.122;12.776;2023-06-14T04:14:48;324.50;;;66.50;;
31091;SDS011;67728;53.122;12.776;2023-06-14T04:16:18;326.43;;;68.00;;
31091;SDS011;67728;53.122;12.776;2023-06-14T04:17:50;322.00;;;65.17;;
31091;SDS011;67728;53.122;12.776;2023-06-14T04:19:22;324.13;;;69.20;;
31091;SDS011;67728;53.122;12.776;2023-06-14T04:20:54;322.93;;;68.13;;
31091;SDS011;67728;53.122;12.776;2023-06-14T04:22:26;324.87;;;70.77;;
31091;SDS011;67728;53.122;12.776;2023-06-14T04:23:58;323.97;;;70.10;;
31091;SDS011;67728;53.122;12.776;2023-06-14T04:25:31;322.87;;;69.70;;
31091;SDS011;67728;53.122;12.776;2023-06-14T04:27:05;324.33;;;70.50;;
31091;SDS011;67728;53.122;12.776;2023-06-14T04:28:36;324.70;;;70.40;;
31091;SDS011;67728;53.122;12.776;2023-06-14T04:30:11;324.63;;;69.73;;
31091;SDS011;67728;53.122;12.776;2023-06-14T04:31:43;324.27;;;71.60;;
31091;SDS011;67728;53.122;12.776;2023-06-14T04:33:15;323.20;;;70.17;;
31091;SDS011;67728;53.122;12.776;2023-06-14T04:34:47;323.43;;;71.37;;
31091;SDS011;67728;53.122;12.776;2023-06-14T04:36:19;324.63;;;71.07;;
31091;SDS011;67728;53.122;12.776;2023-06-14T04:37:51;322.37;;;68.97;;
31091;SDS011;67728;53.122;12.776;2023-06-14T04:39:23;321.03;;;69.50;;
31091;SDS011;67728;53.122;12.776;2023-06-14T04:40:55;327.50;;;71.17;;
31091;SDS011;67728;53.122;12.776;2023-06-14T04:42:28;317.80;;;69.43;;
31091;SDS011;67728;53.122;12.776;2023-06-14T04:44:00;338.77;;;74.10;;
31091;SDS011;67728;53.122;12.776;2023-06-14T04:45:32;319.27;;;74.40;;
31091;SDS011;67728;53.122;12.776;2023-06-14T04:47:03;317.87;;;70.70;;
31091;SDS011;67728;53.122;12.776;2023-06-14T04:48:37;319.40;;;72.07;;
31091;SDS011;67728;53.122;12.776;2023-06-14T04:50:09;319.17;;;72.10;;
31091;SDS011;67728;53.122;12.776;2023-06-14T04:51:43;320.43;;;71.40;;
31091;SDS011;67728;53.122;12.776;2023-06-14T04:53:17;319.57;;;71.23;;
31091;SDS011;67728;53.122;12.776;2023-06-14T04:54:50;321.30;;;72.30;;
31091;SDS011;67728;53.122;12.776;2023-06-14T04:56:24;323.47;;;72.23;;
31091;SDS011;67728;53.122;12.776;2023-06-14T04:57:57;319.23;;;75.40;;
31091;SDS011;67728;53.122;12.776;2023-06-14T04:59:29;320.93;;;78.40;;
31091;SDS011;67728;53.122;12.776;2023-06-14T05:01:03;320.83;;;79.10;;
31091;SDS011;67728;53.122;12.776;2023-06-14T05:02:34;318.90;;;77.27;;
31091;SDS011;67728;53.122;12.776;2023-06-14T05:04:07;359.13;;;85.40;;
31091;SDS011;67728;53.122;12.776;2023-06-14T05:05:39;320.80;;;77.53;;
31091;SDS011;67728;53.122;12.776;2023-06-14T05:07:11;320.13;;;77.77;;
31091;SDS011;67728;53.122;12.776;2023-06-14T05:08:44;319.03;;;74.20;;
31091;SDS011;67728;53.122;12.776;2023-06-14T05:10:16;317.40;;;75.67;;
31091;SDS011;67728;53.122;12.776;2023-06-14T05:11:46;317.03;;;75.30;;
31091;SDS011;67728;53.122;12.776;2023-06-14T05:13:19;317.07;;;75.07;;
31091;SDS011;67728;53.122;12.776;2023-06-14T05:14:53;314.37;;;74.23;;
31091;SDS011;67728;53.122;12.776;2023-06-14T05:16:24;315.97;;;74.90;;
31091;SDS011;67728;53.122;12.776;2023-06-14T05:17:59;315.77;;;75.83;;
31091;SDS011;67728;53.122;12.776;2023-06-14T05:19:31;314.50;;;74.97;;
31091;SDS011;67728;53.122;12.776;2023-06-14T05:21:02;315.93;;;75.33;;
31091;SDS011;67728;53.122;12.776;2023-06-14T05:22:34;313.50;;;73.17;;
31091;SDS011;67728;53.122;12.776;2023-06-14T05:24:06;316.23;;;77.37;;
31091;SDS011;67728;53.122;12.776;2023-06-14T05:25:39;316.17;;;75.87;;
31091;SDS011;67728;53.122;12.776;2023-06-14T05:27:11;312.97;;;74.30;;
31091;SDS011;67728;53.122;12.776;2023-06-14T05:28:44;317.07;;;76.57;;
31091;SDS011;67728;53.122;12.776;2023-06-14T05:30:16;329.13;;;79.70;;
31091;SDS011;67728;53.122;12.776;2023-06-14T05:31:48;319.57;;;79.27;;
31091;SDS011;67728;53.122;12.776;2023-06-14T05:33:19;317.33;;;78.57;;
31091;SDS011;67728;53.122;12.776;2023-06-14T05:34:51;317.03;;;78.67;;
31091;SDS011;67728;53.122;12.776;2023-06-14T05:36:23;322.30;;;81.17;;
31091;SDS011;67728;53.122;12.776;2023-06-14T05:37:53;319.30;;;80.13;;
31091;SDS011;67728;53.122;12.776;2023-06-14T05:39:25;319.50;;;81.97;;
31091;SDS011;67728;53.122;12.776;2023-06-14T05:40:56;318.70;;;81.17;;
31091;SDS011;67728;53.122;12.776;2023-06-14T05:42:29;319.27;;;82.60;;
31091;SDS011;67728;53.122;12.776;2023-06-14T05:44:02;317.33;;;81.67;;
31091;SDS011;67728;53.122;12.776;2023-06-14T05:45:34;332.70;;;84.10;;
31091;SDS011;67728;53.122;12.776;2023-06-14T05:47:05;318.93;;;81.37;;
31091;SDS011;67728;53.122;12.776;2023-06-14T05:48:37;320.27;;;81.50;;
31091;SDS011;67728;53.122;12.776;2023-06-14T05:50:09;319.20;;;80.77;;
31091;SDS011;67728;53.122;12.776;2023-06-14T05:51:41;315.57;;;76.30;;
31091;SDS011;67728;53.122;12.776;2023-06-14T05:53:12;318.77;;;83.83;;
31091;SDS011;67728;53.122;12.776;2023-06-14T05:54:44;320.30;;;88.43;;
31091;SDS011;67728;53.122;12.776;2023-06-14T05:56:16;322.03;;;84.17;;
31091;SDS011;67728;53.122;12.776;2023-06-14T05:57:49;318.63;;;84.50;;
31091;SDS011;67728;53.122;12.776;2023-06-14T05:59:22;318.27;;;83.20;;
31091;SDS011;67728;53.122;12.776;2023-06-14T06:00:53;320.50;;;83.70;;
31091;SDS011;67728;53.122;12.776;2023-06-14T06:02:25;323.37;;;83.33;;
31091;SDS011;67728;53.122;12.776;2023-06-14T06:03:56;319.77;;;82.80;;
31091;SDS011;67728;53.122;12.776;2023-06-14T06:05:27;320.23;;;83.50;;
31091;SDS011;67728;53.122;12.776;2023-06-14T06:06:59;317.47;;;81.80;;
31091;SDS011;67728;53.122;12.776;2023-06-14T06:08:30;320.60;;;85.10;;
31091;SDS011;67728;53.122;12.776;2023-06-14T06:10:03;318.87;;;82.70;;
31091;SDS011;67728;53.122;12.776;2023-06-14T06:11:36;319.73;;;85.53;;
31091;SDS011;67728;53.122;12.776;2023-06-14T06:13:08;318.73;;;82.90;;
31091;SDS011;67728;53.122;12.776;2023-06-14T06:14:41;321.07;;;87.20;;
31091;SDS011;67728;53.122;12.776;2023-06-14T06:16:13;318.93;;;86.03;;
31091;SDS011;67728;53.122;12.776;2023-06-14T06:17:44;318.20;;;85.13;;
31091;SDS011;67728;53.122;12.776;2023-06-14T06:19:17;318.77;;;84.30;;
31091;SDS011;67728;53.122;12.776;2023-06-14T06:20:49;321.67;;;89.03;;
31091;SDS011;67728;53.122;12.776;2023-06-14T06:22:21;316.70;;;83.40;;
31091;SDS011;67728;53.122;12.776;2023-06-14T06:23:53;322.53;;;89.77;;
31091;SDS011;67728;53.122;12.776;2023-06-14T06:25:25;321.40;;;90.07;;
31091;SDS011;67728;53.122;12.776;2023-06-14T06:26:56;323.27;;;91.27;;
31091;SDS011;67728;53.122;12.776;2023-06-14T06:28:27;322.27;;;88.73;;
31091;SDS011;67728;53.122;12.776;2023-06-14T06:30:00;323.40;;;90.93;;
31091;SDS011;67728;53.122;12.776;2023-06-14T06:31:32;323.93;;;89.77;;
31091;SDS011;67728;53.122;12.776;2023-06-14T06:33:03;323.67;;;92.07;;
31091;SDS011;67728;53.122;12.776;2023-06-14T06:34:35;319.97;;;90.40;;
31091;SDS011;67728;53.122;12.776;2023-06-14T06:36:07;319.07;;;89.10;;
31091;SDS011;67728;53.122;12.776;2023-06-14T06:37:39;324.67;;;93.67;;
31091;SDS011;67728;53.122;12.776;2023-06-14T06:39:10;321.70;;;92.03;;
31091;SDS011;67728;53.122;12.776;2023-06-14T06:40:42;321.87;;;93.27;;
31091;SDS011;67728;53.122;12.776;2023-06-14T06:42:14;323.40;;;94.53;;
31091;SDS011;67728;53.122;12.776;2023-06-14T06:43:45;319.43;;;92.70;;
31091;SDS011;67728;53.122;12.776;2023-06-14T06:45:18;323.03;;;94.27;;
31091;SDS011;67728;53.122;12.776;2023-06-14T06:46:50;323.57;;;90.50;;
31091;SDS011;67728;53.122;12.776;2023-06-14T06:48:21;322.00;;;93.90;;
31091;SDS011;67728;53.122;12.776;2023-06-14T06:49:53;319.07;;;93.00;;
31091;SDS011;67728;53.122;12.776;2023-06-14T06:51:25;320.37;;;93.67;;
31091;SDS011;67728;53.122;12.776;2023-06-14T06:52:56;322.90;;;95.33;;
31091;SDS011;67728;53.122;12.776;2023-06-14T06:54:28;321.73;;;93.03;;
31091;SDS011;67728;53.122;12.776;2023-06-14T06:55:59;317.70;;;92.83;;
31091;SDS011;67728;53.122;12.776;2023-06-14T06:57:30;318.17;;;93.30;;
31091;SDS011;67728;53.122;12.776;2023-06-14T06:59:02;324.70;;;95.50;;
31091;SDS011;67728;53.122;12.776;2023-06-14T07:00:35;321.07;;;97.93;;
31091;SDS011;67728;53.122;12.776;2023-06-14T07:02:07;318.83;;;94.17;;
31091;SDS011;67728;53.122;12.776;2023-06-14T07:03:39;333.73;;;101.77;;
31091;SDS011;67728;53.122;12.776;2023-06-14T07:05:10;317.70;;;98.53;;
31091;SDS011;67728;53.122;12.776;2023-06-14T07:06:42;321.83;;;99.70;;
31091;SDS011;67728;53.122;12.776;2023-06-14T07:08:14;318.97;;;99.27;;
31091;SDS011;67728;53.122;12.776;2023-06-14T07:09:46;317.27;;;93.33;;
31091;SDS011;67728;53.122;12.776;2023-06-14T07:11:18;318.20;;;96.93;;
31091;SDS011;67728;53.122;12.776;2023-06-14T07:12:50;320.53;;;101.67;;
31091;SDS011;67728;53.122;12.776;2023-06-14T07:14:21;322.23;;;103.70;;
31091;SDS011;67728;53.122;12.776;2023-06-14T07:15:57;326.10;;;106.83;;
31091;SDS011;67728;53.122;12.776;2023-06-14T07:17:30;318.60;;;104.17;;
31091;SDS011;67728;53.122;12.776;2023-06-14T07:19:01;320.60;;;105.77;;
31091;SDS011;67728;53.122;12.776;2023-06-14T07:20:33;317.90;;;103.37;;
31091;SDS011;67728;53.122;12.776;2023-06-14T07:22:05;316.43;;;104.10;;
31091;SDS011;67728;53.122;12.776;2023-06-14T07:23:36;316.97;;;104.60;;
31091;SDS011;67728;53.122;12.776;2023-06-14T07:25:08;320.90;;;108.97;;
31091;SDS011;67728;53.122;12.776;2023-06-14T07:26:43;318.10;;;105.37;;
31091;SDS011;67728;53.122;12.776;2023-06-14T07:28:15;330.20;;;111.80;;
31091;SDS011;67728;53.122;12.776;2023-06-14T07:29:47;320.00;;;109.00;;
31091;SDS011;67728;53.122;12.776;2023-06-14T07:31:20;319.30;;;111.90;;
31091;SDS011;67728;53.122;12.776;2023-06-14T07:32:52;318.87;;;110.33;;
31091;SDS011;67728;53.122;12.776;2023-06-14T07:34:24;318.30;;;110.00;;
31091;SDS011;67728;53.122;12.776;2023-06-14T07:35:56;317.97;;;109.83;;
31091;SDS011;67728;53.122;12.776;2023-06-14T07:37:27;320.97;;;116.13;;
31091;SDS011;67728;53.122;12.776;2023-06-14T07:38:59;317.23;;;107.57;;
31091;SDS011;67728;53.122;12.776;2023-06-14T07:40:33;319.83;;;107.57;;
31091;SDS011;67728;53.122;12.776;2023-06-14T07:42:05;313.03;;;102.27;;
31091;SDS011;67728;53.122;12.776;2023-06-14T07:43:37;316.77;;;108.50;;
31091;SDS011;67728;53.122;12.776;2023-06-14T07:45:09;317.47;;;112.23;;
31091;SDS011;67728;53.122;12.776;2023-06-14T07:46:42;317.40;;;112.80;;
31091;SDS011;67728;53.122;12.776;2023-06-14T07:48:16;319.07;;;119.30;;
31091;SDS011;67728;53.122;12.776;2023-06-14T07:49:47;315.53;;;107.53;;
31091;SDS011;67728;53.122;12.776;2023-06-14T07:51:19;318.23;;;115.57;;
31091;SDS011;67728;53.122;12.776;2023-06-14T07:52:52;321.20;;;114.97;;
31091;SDS011;67728;53.122;12.776;2023-06-14T07:54:23;317.67;;;114.77;;
31091;SDS011;67728;53.122;12.776;2023-06-14T07:55:56;317.83;;;114.57;;
31091;SDS011;67728;53.122;12.776;2023-06-14T07:57:28;317.03;;;117.10;;
31091;SDS011;67728;53.122;12.776;2023-06-14T07:58:59;319.53;;;119.40;;
31091;SDS011;67728;53.122;12.776;2023-06-14T08:00:31;319.07;;;127.80;;
31091;SDS011;67728;53.122;12.776;2023-06-14T08:02:04;318.30;;;122.07;;
31091;SDS011;67728;53.122;12.776;2023-06-14T08:03:36;322.43;;;129.43;;
31091;SDS011;67728;53.122;12.776;2023-06-14T08:05:09;317.20;;;121.10;;
31091;SDS011;67728;53.122;12.776;2023-06-14T08:06:41;313.77;;;112.60;;
31091;SDS011;67728;53.122;12.776;2023-06-14T08:08:14;316.57;;;118.77;;
31091;SDS011;67728;53.122;12.776;2023-06-14T08:09:46;319.00;;;121.93;;
31091;SDS011;67728;53.122;12.776;2023-06-14T08:11:17;319.17;;;118.40;;
31091;SDS011;67728;53.122;12.776;2023-06-14T08:12:49;317.47;;;119.87;;
31091;SDS011;67728;53.122;12.776;2023-06-14T08:14:21;318.33;;;123.37;;
31091;SDS011;67728;53.122;12.776;2023-06-14T08:15:52;318.70;;;120.40;;
31091;SDS011;67728;53.122;12.776;2023-06-14T08:17:26;316.33;;;120.97;;
31091;SDS011;67728;53.122;12.776;2023-06-14T08:18:58;315.37;;;119.93;;
31091;SDS011;67728;53.122;12.776;2023-06-14T08:20:29;317.00;;;126.33;;
31091;SDS011;67728;53.122;12.776;2023-06-14T08:22:01;317.63;;;124.10;;
31091;SDS011;67728;53.122;12.776;2023-06-14T08:23:33;315.37;;;123.17;;
31091;SDS011;67728;53.122;12.776;2023-06-14T08:25:06;314.90;;;122.27;;
31091;SDS011;67728;53.122;12.776;2023-06-14T08:26:38;314.67;;;123.60;;
31091;SDS011;67728;53.122;12.776;2023-06-14T08:28:10;311.87;;;119.00;;
31091;SDS011;67728;53.122;12.776;2023-06-14T08:29:42;312.20;;;124.23;;
31091;SDS011;67728;53.122;12.776;2023-06-14T08:31:14;307.63;;;117.13;;
31091;SDS011;67728;53.122;12.776;2023-06-14T08:32:48;309.43;;;117.17;;
31091;SDS011;67728;53.122;12.776;2023-06-14T08:34:19;308.83;;;121.23;;
31091;SDS011;67728;53.122;12.776;2023-06-14T08:35:53;308.50;;;118.23;;
31091;SDS011;67728;53.122;12.776;2023-06-14T08:37:25;307.93;;;120.03;;
31091;SDS011;67728;53.122;12.776;2023-06-14T08:38:56;311.80;;;123.07;;
31091;SDS011;67728;53.122;12.776;2023-06-14T08:40:29;305.80;;;120.60;;
31091;SDS011;67728;53.122;12.776;2023-06-14T08:42:02;307.67;;;119.17;;
31091;SDS011;67728;53.122;12.776;2023-06-14T08:43:34;308.97;;;121.60;;
31091;SDS011;67728;53.122;12.776;2023-06-14T08:45:06;305.17;;;115.17;;
31091;SDS011;67728;53.122;12.776;2023-06-14T08:46:38;311.67;;;118.53;;